createdAt,value
2022-09-17T00:01:27.247Z,2.00
2022-09-17T00:03:57.548Z,2.10
2022-09-17T00:06:25.825Z,1.73
2022-09-17T00:08:54.378Z,2.40
2022-09-17T00:11:27.975Z,1.80
2022-09-17T00:13:57.549Z,2.20
2022-09-17T00:16:32.987Z,1.70
2022-09-17T00:19:01.492Z,1.80
2022-09-17T00:21:29.568Z,2.00
2022-09-17T00:24:01.479Z,2.10
2022-09-17T00:26:31.417Z,2.28
2022-09-17T00:28:59.733Z,2.60
2022-09-17T00:31:29.498Z,2.60
2022-09-17T00:33:59.296Z,2.10
2022-09-17T00:36:27.412Z,2.20
2022-09-17T00:38:58.024Z,1.80
2022-09-17T00:41:29.460Z,2.15
2022-09-17T00:43:59.073Z,2.10
2022-09-17T00:46:38.017Z,2.00
2022-09-17T00:49:17.249Z,1.83
2022-09-17T00:51:57.067Z,1.77
2022-09-17T00:54:27.663Z,1.98
2022-09-17T00:56:57.016Z,2.00
2022-09-17T00:59:25.191Z,1.80
2022-09-17T01:01:52.994Z,2.35
2022-09-17T01:04:25.477Z,2.30
2022-09-17T01:07:17.296Z,2.25
2022-09-17T01:09:51.765Z,2.20
2022-09-17T01:12:37.225Z,2.25
2022-09-17T01:15:37.236Z,1.90
2022-09-17T01:18:21.869Z,2.08
2022-09-17T01:21:23.141Z,2.58
2022-09-17T01:24:12.910Z,2.20
2022-09-17T01:27:03.849Z,2.17
2022-09-17T01:29:52.748Z,2.00
2022-09-17T01:32:32.868Z,1.55
2022-09-17T01:35:32.689Z,1.98
2022-09-17T01:38:03.339Z,2.00
2022-09-17T01:40:40.287Z,2.35
2022-09-17T01:43:15.071Z,1.80
2022-09-17T01:45:50.614Z,2.00
2022-09-17T01:48:20.952Z,1.75
2022-09-17T01:51:07.123Z,1.80
2022-09-17T01:53:42.968Z,1.37
2022-09-17T01:56:16.613Z,1.20
2022-09-17T01:59:30.840Z,1.40
2022-09-17T02:02:07.229Z,1.70
2022-09-17T02:04:47.059Z,1.50
2022-09-17T02:07:22.681Z,1.70
2022-09-17T02:10:00.687Z,1.70
2022-09-17T02:12:35.629Z,1.77
2022-09-17T02:15:10.126Z,1.50
2022-09-17T02:18:05.200Z,1.93
2022-09-17T02:20:47.985Z,1.70
2022-09-17T02:23:28.975Z,1.70
2022-09-17T02:26:15.359Z,1.77
2022-09-17T02:28:59.791Z,1.70
2022-09-17T02:34:01.531Z,1.30
2022-09-17T02:36:30.084Z,1.85
2022-09-17T02:39:02.959Z,1.77
2022-09-17T02:42:09.007Z,1.48
2022-09-17T02:44:51.642Z,1.10
2022-09-17T02:47:27.557Z,1.30
2022-09-17T02:50:07.077Z,1.70
2022-09-17T02:53:06.235Z,1.60
2022-09-17T02:55:41.992Z,1.77
2022-09-17T02:58:18.328Z,1.63
2022-09-17T03:00:47.635Z,2.20
2022-09-17T03:03:21.060Z,2.05
2022-09-17T03:05:49.844Z,1.87
2022-09-17T03:10:50.373Z,1.87
2022-09-17T03:13:17.818Z,1.62
2022-09-17T03:15:45.296Z,1.67
2022-09-17T03:18:13.060Z,1.87
2022-09-17T03:20:43.016Z,2.03
2022-09-17T03:23:10.431Z,2.00
2022-09-17T03:25:38.121Z,1.73
2022-09-17T03:28:05.509Z,2.30
2022-09-17T03:30:33.020Z,2.10
2022-09-17T03:33:00.745Z,2.08
2022-09-17T03:35:28.260Z,1.63
2022-09-17T03:37:55.710Z,2.05
2022-09-17T03:40:23.429Z,1.98
2022-09-17T03:42:50.845Z,1.87
2022-09-17T03:45:18.392Z,1.95
2022-09-17T03:47:46.095Z,2.07
2022-09-17T03:50:13.554Z,1.52
2022-09-17T03:52:42.812Z,1.95
2022-09-17T03:55:11.674Z,1.67
2022-09-17T03:57:39.142Z,1.80
2022-09-17T04:00:07.681Z,2.00
2022-09-17T04:02:39.388Z,1.70
2022-09-17T04:05:08.016Z,1.20
2022-09-17T04:07:35.479Z,1.30
2022-09-17T04:10:04.977Z,1.50
2022-09-17T04:12:32.756Z,2.17
2022-09-17T04:15:00.158Z,1.30
2022-09-17T04:17:27.925Z,1.30
2022-09-17T04:19:55.726Z,1.40
2022-09-17T04:22:23.158Z,1.40
2022-09-17T04:24:50.547Z,1.23
2022-09-17T04:27:18.304Z,1.25
2022-09-17T04:29:45.678Z,1.10
2022-09-17T04:32:13.073Z,1.60
2022-09-17T04:34:40.794Z,1.52
2022-09-17T04:37:08.193Z,1.87
2022-09-17T04:39:35.806Z,1.45
2022-09-17T04:42:03.743Z,1.30
2022-09-17T04:44:31.179Z,1.30
2022-09-17T04:46:58.606Z,1.23
2022-09-17T04:49:29.800Z,1.10
2022-09-17T04:51:57.199Z,1.40
2022-09-17T04:54:24.650Z,1.35
2022-09-17T04:56:52.505Z,1.08
2022-09-17T04:59:19.917Z,1.30
2022-09-17T05:01:47.386Z,1.30
2022-09-17T05:04:15.140Z,1.10
2022-09-17T05:06:42.524Z,1.02
2022-09-17T05:09:09.903Z,1.20
2022-09-17T05:11:37.602Z,0.80
2022-09-17T05:14:05.071Z,1.23
2022-09-17T05:16:32.585Z,1.02
2022-09-17T05:19:00.349Z,1.17
2022-09-17T05:21:27.828Z,0.80
2022-09-17T05:23:55.230Z,1.42
2022-09-17T05:26:22.998Z,1.00
2022-09-17T05:28:50.650Z,0.80
2022-09-17T05:31:18.103Z,1.40
2022-09-17T05:33:46.051Z,1.60
2022-09-17T05:36:13.496Z,1.20
2022-09-17T05:38:40.864Z,0.73
2022-09-17T05:41:08.723Z,1.23
2022-09-17T05:43:36.104Z,1.15
2022-09-17T05:46:05.030Z,1.30
2022-09-17T05:48:32.902Z,1.15
2022-09-17T05:51:00.416Z,1.10
2022-09-17T05:53:27.944Z,1.00
2022-09-17T05:55:59.368Z,0.73
2022-09-17T05:58:27.616Z,1.10
2022-09-17T06:00:55.368Z,1.12
2022-09-17T06:03:23.188Z,0.60
2022-09-17T06:05:58.787Z,0.70
2022-09-17T06:08:28.625Z,0.90
2022-09-17T06:11:00.232Z,1.10
2022-09-17T06:13:30.434Z,1.30
2022-09-17T06:15:57.958Z,0.83
2022-09-17T06:18:25.404Z,1.02
2022-09-17T06:21:01.611Z,0.80
2022-09-17T06:23:35.133Z,1.08
2022-09-17T06:26:04.602Z,0.93
2022-09-17T06:28:32.588Z,0.73
2022-09-17T06:31:03.379Z,0.98
2022-09-17T06:33:32.585Z,1.05
2022-09-17T06:36:01.991Z,1.27
2022-09-17T06:38:31.167Z,0.98
2022-09-17T06:40:59.323Z,1.13
2022-09-17T06:43:27.040Z,0.80
2022-09-17T06:45:55.863Z,1.20
2022-09-17T06:48:24.753Z,1.80
2022-09-17T06:50:54.377Z,2.78
2022-09-17T06:53:23.342Z,2.90
2022-09-17T06:55:51.179Z,2.45
2022-09-17T06:58:18.701Z,2.55
2022-09-17T07:00:46.163Z,2.83
2022-09-17T07:03:13.874Z,2.58
2022-09-17T07:05:44.099Z,2.27
2022-09-17T07:08:11.492Z,1.83
2022-09-17T07:10:39.177Z,1.95
2022-09-17T07:13:06.587Z,1.90
2022-09-17T07:15:33.986Z,2.00
2022-09-17T07:18:08.336Z,2.20
2022-09-17T07:20:36.095Z,2.83
2022-09-17T07:23:03.860Z,2.22
2022-09-17T07:25:31.322Z,2.15
2022-09-17T07:27:59.746Z,2.53
2022-09-17T07:30:27.638Z,1.90
2022-09-17T07:32:55.038Z,2.67
2022-09-17T07:35:22.440Z,2.12
2022-09-17T07:37:50.124Z,2.22
2022-09-17T07:40:17.617Z,2.65
2022-09-17T07:42:45.067Z,1.53
2022-09-17T07:45:12.804Z,2.17
2022-09-17T07:47:41.454Z,1.45
2022-09-17T07:50:09.562Z,2.10
2022-09-17T07:52:37.430Z,1.87
2022-09-17T07:55:05.175Z,1.47
2022-09-17T07:57:32.595Z,1.80
2022-09-17T08:00:00.275Z,1.70
2022-09-17T08:02:28.735Z,1.20
2022-09-17T08:04:56.487Z,1.83
2022-09-17T08:07:23.915Z,1.87
2022-09-17T08:09:51.539Z,1.98
2022-09-17T08:12:19.558Z,2.03
2022-09-17T08:14:46.940Z,1.73
2022-09-17T08:17:14.404Z,1.87
2022-09-17T08:19:42.963Z,1.77
2022-09-17T08:22:10.767Z,1.80
2022-09-17T08:24:38.227Z,2.22
2022-09-17T08:27:05.937Z,1.70
2022-09-17T08:29:35.419Z,1.80
2022-09-17T08:32:03.247Z,2.37
2022-09-17T08:34:31.020Z,1.98
2022-09-17T08:36:58.434Z,1.83
2022-09-17T08:39:25.822Z,1.75
2022-09-17T08:42:19.901Z,1.70
2022-09-17T08:44:49.880Z,1.60
2022-09-17T08:47:40.938Z,1.80
2022-09-17T08:50:23.788Z,1.85
2022-09-17T08:52:51.880Z,1.87
2022-09-17T08:55:25.425Z,1.73
2022-09-17T08:58:02.836Z,1.50
2022-09-17T09:00:42.763Z,1.48
2022-09-17T09:03:29.418Z,1.90
2022-09-17T09:05:56.897Z,2.10
2022-09-17T09:08:35.563Z,1.87
2022-09-17T09:11:13.514Z,1.60
2022-09-17T09:13:48.628Z,1.80
2022-09-17T09:16:20.733Z,1.30
2022-09-17T09:18:54.199Z,1.90
2022-09-17T09:21:29.155Z,1.67
2022-09-17T09:24:05.594Z,1.63
2022-09-17T09:26:47.899Z,1.60
2022-09-17T09:30:02.302Z,1.77
2022-09-17T09:32:44.584Z,1.80
2022-09-17T09:35:18.068Z,1.87
2022-09-17T09:37:55.142Z,1.50
2022-09-17T09:40:33.468Z,1.90
2022-09-17T09:43:11.055Z,1.60
2022-09-17T09:46:20.036Z,2.10
2022-09-17T09:48:53.657Z,2.50
2022-09-17T09:51:36.475Z,2.17
2022-09-17T09:54:25.053Z,2.03
2022-09-17T09:56:58.439Z,2.20
2022-09-17T09:59:26.919Z,1.92
2022-09-17T10:01:54.811Z,1.90
2022-09-17T10:04:27.956Z,1.80
2022-09-17T10:07:07.189Z,2.12
2022-09-17T10:09:37.110Z,2.10
2022-09-17T10:12:06.168Z,1.90
2022-09-17T10:14:36.081Z,1.98
2022-09-17T10:17:42.432Z,1.97
2022-09-17T10:20:19.444Z,2.08
2022-09-17T10:22:50.672Z,2.08
2022-09-17T10:25:32.994Z,2.05
2022-09-17T10:28:04.735Z,1.70
2022-09-17T10:30:32.600Z,1.93
2022-09-17T10:33:18.450Z,1.80
2022-09-17T10:36:15.294Z,2.15
2022-09-17T10:38:46.617Z,2.05
2022-09-17T10:41:15.979Z,2.08
2022-09-17T10:43:44.195Z,1.90
2022-09-17T10:46:16.961Z,2.25
2022-09-17T10:48:55.906Z,2.25
2022-09-17T10:51:25.584Z,2.20
2022-09-17T10:54:34.101Z,2.05
2022-09-17T10:57:03.320Z,1.80
2022-09-17T11:00:09.340Z,2.15
2022-09-17T11:03:04.954Z,2.25
2022-09-17T11:05:50.478Z,2.37
2022-09-17T11:08:41.197Z,2.45
2022-09-17T11:11:11.991Z,2.90
2022-09-17T11:13:53.841Z,1.87
2022-09-17T11:17:02.350Z,1.60
2022-09-17T11:20:16.137Z,1.83
2022-09-17T11:23:04.659Z,2.10
2022-09-17T11:26:06.019Z,1.93
2022-09-17T11:29:08.418Z,1.30
2022-09-17T11:31:44.721Z,1.50
2022-09-17T11:34:25.027Z,1.30
2022-09-17T11:37:25.604Z,1.62
2022-09-17T11:40:22.666Z,1.67
2022-09-17T11:42:56.917Z,1.70
2022-09-17T11:45:33.711Z,2.00
2022-09-17T11:48:24.237Z,2.12
2022-09-17T11:51:13.756Z,2.03
2022-09-17T11:53:47.855Z,1.97
2022-09-17T11:56:23.317Z,1.90
2022-09-17T11:59:18.614Z,2.22
2022-09-17T12:01:51.438Z,2.40
2022-09-17T12:04:34.177Z,1.60
2022-09-17T12:07:21.228Z,1.60
2022-09-17T12:09:55.541Z,2.03
2022-09-17T12:12:48.483Z,1.80
2022-09-17T12:15:25.178Z,2.08
2022-09-17T12:18:37.401Z,1.75
2022-09-17T12:21:09.686Z,1.40
2022-09-17T12:23:45.017Z,1.65
2022-09-17T12:26:15.432Z,1.62
2022-09-17T12:29:20.684Z,1.83
2022-09-17T12:31:53.064Z,1.30
2022-09-17T12:34:27.270Z,1.23
2022-09-17T12:36:57.889Z,1.50
2022-09-17T12:39:34.157Z,1.40
2022-09-17T12:42:24.237Z,1.62
2022-09-17T12:45:03.101Z,1.70
2022-09-17T12:47:55.407Z,1.97
2022-09-17T12:50:38.237Z,1.65
2022-09-17T12:53:21.110Z,2.08
2022-09-17T12:56:03.806Z,1.80
2022-09-17T12:59:09.937Z,1.95
2022-09-17T13:02:00.564Z,1.90
2022-09-17T13:05:05.340Z,2.40
2022-09-17T13:08:02.765Z,2.37
2022-09-17T13:10:33.097Z,2.60
2022-09-17T13:13:16.609Z,2.65
2022-09-17T13:16:08.420Z,2.20
2022-09-17T13:19:16.245Z,2.30
2022-09-17T13:22:07.555Z,2.10
2022-09-17T13:24:35.207Z,2.05
2022-09-17T13:27:05.306Z,2.60
2022-09-17T13:29:44.833Z,2.63
2022-09-17T13:32:39.678Z,2.50
2022-09-17T13:35:07.085Z,2.08
2022-09-17T13:37:39.638Z,2.47
2022-09-17T13:40:28.219Z,2.37
2022-09-17T13:42:58.213Z,2.60
2022-09-17T13:45:26.743Z,2.30
2022-09-17T13:47:55.883Z,2.40
2022-09-17T13:50:44.263Z,2.45
2022-09-17T13:53:14.656Z,1.92
2022-09-17T13:56:01.191Z,2.30
2022-09-17T13:58:33.846Z,2.10
2022-09-17T14:01:08.143Z,2.03
2022-09-17T14:03:38.479Z,2.05
2022-09-17T14:06:05.904Z,2.05
2022-09-17T14:08:57.947Z,2.20
2022-09-17T14:11:26.610Z,1.87
2022-09-17T14:14:03.397Z,1.90
2022-09-17T14:16:37.382Z,2.30
2022-09-17T14:19:31.015Z,2.00
2022-09-17T14:22:02.650Z,2.10
2022-09-17T14:24:34.156Z,2.55
2022-09-17T14:27:56.742Z,2.08
2022-09-17T14:30:29.502Z,2.47
2022-09-17T14:33:07.723Z,2.20
2022-09-17T14:35:50.314Z,1.90
2022-09-17T14:38:32.891Z,2.08
2022-09-17T14:41:05.120Z,2.17
2022-09-17T14:43:41.188Z,1.98
2022-09-17T14:46:17.411Z,2.70
2022-09-17T14:48:45.143Z,1.90
2022-09-17T14:51:18.842Z,2.55
2022-09-17T14:54:14.754Z,1.87
2022-09-17T14:56:55.774Z,2.03
2022-09-17T14:59:35.516Z,1.83
2022-09-17T15:02:03.043Z,1.57
2022-09-17T15:04:30.831Z,1.10
2022-09-17T15:07:09.471Z,1.25
2022-09-17T15:09:37.260Z,1.52
2022-09-17T15:12:06.540Z,1.33
2022-09-17T15:14:38.188Z,1.10
2022-09-17T15:17:08.994Z,0.93
2022-09-17T15:19:40.612Z,1.00
2022-09-17T15:22:20.770Z,1.33
2022-09-17T15:24:51.067Z,1.30
2022-09-17T15:27:27.573Z,1.50
2022-09-17T15:30:24.916Z,1.30
2022-09-17T15:32:58.056Z,1.05
2022-09-17T15:35:31.358Z,0.80
2022-09-17T15:38:22.706Z,1.17
2022-09-17T15:40:51.737Z,1.10
2022-09-17T15:43:29.518Z,1.20
2022-09-17T15:46:00.786Z,1.00
2022-09-17T15:48:28.423Z,1.08
2022-09-17T15:51:00.959Z,1.10
2022-09-17T15:53:33.506Z,1.00
2022-09-17T15:56:02.920Z,1.08
2022-09-17T15:58:50.509Z,1.00
2022-09-17T16:01:18.277Z,1.10
2022-09-17T16:03:46.279Z,1.02
2022-09-17T16:06:19.811Z,0.90
2022-09-17T16:08:54.691Z,1.10
2022-09-17T16:11:24.474Z,0.70
2022-09-17T16:13:54.396Z,0.80
2022-09-17T16:16:31.133Z,1.75
2022-09-17T16:18:59.007Z,1.20
2022-09-17T16:21:26.402Z,1.10
2022-09-17T16:23:58.182Z,1.20
2022-09-17T16:26:30.756Z,1.10
2022-09-17T16:29:14.164Z,0.68
2022-09-17T16:31:41.967Z,0.70
2022-09-17T16:34:09.393Z,1.00
2022-09-17T16:36:36.867Z,0.80
2022-09-17T16:39:05.259Z,0.88
2022-09-17T16:41:33.048Z,0.85
2022-09-17T16:44:00.491Z,1.00
2022-09-17T16:46:28.189Z,0.80
2022-09-17T16:48:55.602Z,0.80
2022-09-17T16:51:23.023Z,0.90
2022-09-17T16:53:50.757Z,0.80
2022-09-17T16:56:18.191Z,0.50
2022-09-17T16:58:45.607Z,0.80
2022-09-17T17:01:15.917Z,0.77
2022-09-17T17:03:45.701Z,1.10
2022-09-17T17:06:17.189Z,1.00
2022-09-17T17:08:44.671Z,0.60
2022-09-17T17:11:12.486Z,0.80
2022-09-17T17:13:42.391Z,1.27
2022-09-17T17:16:11.876Z,1.10
2022-09-17T17:18:43.292Z,1.10
2022-09-17T17:21:12.708Z,0.90
2022-09-17T17:23:43.532Z,0.98
2022-09-17T17:26:10.985Z,1.12
2022-09-17T17:28:38.523Z,0.65
2022-09-17T17:31:06.500Z,1.10
2022-09-17T17:33:34.272Z,0.70
2022-09-17T17:36:08.162Z,0.60
2022-09-17T17:38:37.139Z,1.00
2022-09-17T17:41:10.215Z,1.12
2022-09-17T17:43:38.331Z,1.00
2022-09-17T17:46:08.394Z,1.07
2022-09-17T17:48:36.384Z,0.95
2022-09-17T17:51:06.494Z,1.08
2022-09-17T17:53:34.876Z,1.30
2022-09-17T17:56:06.078Z,1.00
2022-09-17T17:58:35.186Z,0.90
2022-09-17T18:01:22.520Z,0.65
2022-09-17T18:03:50.427Z,0.70
2022-09-17T18:06:17.817Z,0.95
2022-09-17T18:08:45.230Z,0.70
2022-09-17T18:11:12.927Z,0.80
2022-09-17T18:13:40.622Z,1.23
2022-09-17T18:16:12.142Z,0.93
2022-09-17T18:18:44.897Z,1.40
2022-09-17T18:21:16.090Z,1.00
2022-09-17T18:23:45.163Z,0.87
2022-09-17T18:26:18.828Z,0.73
2022-09-17T18:28:46.925Z,1.12
2022-09-17T18:31:23.896Z,1.10
2022-09-17T18:33:57.612Z,1.40
2022-09-17T18:36:26.683Z,1.30
2022-09-17T18:39:53.323Z,0.90
2022-09-17T18:41:49.666Z,1.42
2022-09-17T18:44:19.102Z,0.80
2022-09-17T18:46:48.086Z,1.20
2022-09-17T18:49:15.923Z,1.37
2022-09-17T18:51:43.624Z,1.45
2022-09-17T18:54:12.929Z,1.35
2022-09-17T18:56:41.789Z,1.60
2022-09-17T18:59:10.667Z,1.30
2022-09-17T19:01:38.489Z,1.40
2022-09-17T19:04:07.837Z,1.30
2022-09-17T19:06:36.058Z,1.37
2022-09-17T19:09:05.309Z,1.40
2022-09-17T19:11:35.579Z,1.27
2022-09-17T19:14:03.705Z,1.53
2022-09-17T19:16:31.175Z,1.70
2022-09-17T19:18:58.592Z,1.30
2022-09-17T19:21:26.538Z,1.70
2022-09-17T19:23:54.261Z,1.30
2022-09-17T19:26:24.676Z,1.33
2022-09-17T19:28:54.162Z,1.48
2022-09-17T19:31:22.320Z,1.10
2022-09-17T19:33:51.442Z,1.20
2022-09-17T19:36:20.310Z,1.20
2022-09-17T19:38:48.886Z,0.90
2022-09-17T19:41:23.159Z,1.30
2022-09-17T19:43:55.120Z,1.17
2022-09-17T19:46:24.820Z,1.27
2022-09-17T19:48:57.209Z,1.20
2022-09-17T19:51:26.487Z,1.40
2022-09-17T19:53:54.160Z,1.62
2022-09-17T19:56:26.597Z,1.58
2022-09-17T19:58:54.595Z,0.80
2022-09-17T20:01:22.121Z,1.33
2022-09-17T20:03:49.982Z,1.10
2022-09-17T20:06:20.681Z,1.40
2022-09-17T20:08:50.108Z,1.50
2022-09-17T20:11:22.259Z,1.95
2022-09-17T20:13:49.688Z,1.30
2022-09-17T20:16:21.649Z,1.13
2022-09-17T20:18:50.013Z,1.60
2022-09-17T20:21:20.645Z,1.65
2022-09-17T20:23:48.588Z,0.95
2022-09-17T20:26:16.983Z,1.20
2022-09-17T20:28:44.984Z,1.47
2022-09-17T20:31:18.727Z,1.42
2022-09-17T20:33:47.344Z,1.25
2022-09-17T20:36:20.453Z,1.27
2022-09-17T20:41:39.216Z,1.20
2022-09-17T20:44:07.869Z,1.00
2022-09-17T20:46:35.442Z,0.82
2022-09-17T20:49:03.097Z,1.10
2022-09-17T20:51:32.717Z,0.90
2022-09-17T20:54:01.610Z,1.20
2022-09-17T20:56:33.105Z,1.00
2022-09-17T20:59:17.393Z,0.70
2022-09-17T21:01:47.037Z,0.90
2022-09-17T21:04:18.950Z,0.60
2022-09-17T21:06:47.454Z,0.80
2022-09-17T21:09:16.693Z,0.65
2022-09-17T21:11:45.630Z,0.70
2022-09-17T21:14:15.305Z,0.50
2022-09-17T21:16:43.485Z,0.70
2022-09-17T21:19:12.943Z,0.50
2022-09-17T21:21:40.294Z,0.40
2022-09-17T21:24:10.266Z,0.75
2022-09-17T21:26:37.845Z,0.60
2022-09-17T21:29:05.355Z,0.50
2022-09-17T21:31:36.629Z,0.60
2022-09-17T21:34:07.031Z,0.62
2022-09-17T21:36:36.947Z,0.60
2022-09-17T21:39:16.240Z,0.80
2022-09-17T21:41:45.267Z,0.88
2022-09-17T21:44:12.811Z,0.80
2022-09-17T21:46:41.568Z,0.75
2022-09-17T21:49:09.642Z,0.70
2022-09-17T21:51:39.467Z,0.82
2022-09-17T21:54:09.795Z,0.90
2022-09-17T21:56:37.872Z,0.60
2022-09-17T21:59:07.991Z,0.70
2022-09-17T22:01:46.254Z,0.77
2022-09-17T22:04:19.856Z,0.98
2022-09-17T22:06:48.817Z,0.70
2022-09-17T22:09:22.641Z,0.70
2022-09-17T22:11:50.816Z,0.60
2022-09-17T22:14:21.024Z,0.65
2022-09-17T22:16:52.947Z,0.50
2022-09-17T22:19:22.355Z,0.65
2022-09-17T22:21:51.954Z,0.60
2022-09-17T22:24:21.345Z,0.88
2022-09-17T22:26:55.960Z,0.50
2022-09-17T22:29:24.752Z,0.47
2022-09-17T22:31:52.498Z,0.40
2022-09-17T22:34:22.536Z,0.50
2022-09-17T22:36:50.366Z,0.60
2022-09-17T22:39:21.256Z,0.57
2022-09-17T22:41:50.189Z,0.30
2022-09-17T22:44:19.666Z,0.40
2022-09-17T22:46:49.487Z,0.40
2022-09-17T22:49:18.135Z,0.75
2022-09-17T22:51:48.833Z,0.30
2022-09-17T22:54:17.710Z,0.40
2022-09-17T22:56:46.949Z,1.20
2022-09-17T22:59:15.118Z,0.50
2022-09-17T23:01:42.621Z,1.05
2022-09-17T23:04:10.384Z,0.52
2022-09-17T23:06:39.999Z,0.60
2022-09-17T23:09:07.963Z,0.30
2022-09-17T23:11:38.253Z,0.37
2022-09-17T23:14:09.244Z,0.40
2022-09-17T23:16:39.903Z,0.50
2022-09-17T23:19:08.187Z,0.50
2022-09-17T23:21:35.661Z,0.47
2022-09-17T23:24:03.726Z,0.40
2022-09-17T23:26:31.724Z,0.35
2022-09-17T23:29:04.664Z,0.35
2022-09-17T23:31:35.166Z,0.40
2022-09-17T23:34:04.348Z,0.30
2022-09-17T23:36:35.243Z,0.40
2022-09-17T23:39:04.072Z,0.37
2022-09-17T23:41:34.281Z,0.40
2022-09-17T23:44:04.273Z,0.40
2022-09-17T23:46:34.908Z,0.20
2022-09-17T23:49:04.681Z,0.80
2022-09-17T23:51:35.639Z,0.37
2022-09-17T23:54:05.226Z,0.32
2022-09-17T23:56:33.299Z,0.50
2022-09-17T23:59:01.778Z,0.60
